Latest Coastal Weather Observations for Norah Head

IDN60701

Issued at 7:41 am EDT Monday 27 March 2017 (issued every 10 minutes, with the page automatically refreshed every 10 minutes)

About coastal observations | Map of coastal stations | Coastal observations for NSW | Marine services | Other Formats
Station Details ID: 061366 Name: NORAH HEAD AWS Lat: -33.28 Lon: 151.58 Height: 18.8 m
Data from the previous 72 hours. | See also: Recent months at Norah Head
Date/Time
EDT
Temp
°C
Wind Pressure Rain since
9am
mm
Weather Cloud Vis
km
Sea
Height
m
Swell
Dir  Spd
kts
Gust
kts
hPa Trend Height
m
Period
s
Dir
27/07:30am 20.3 WNW 2 3 1016.3 - 0.0 - - - - - - -
27/07:00am 20.2 WNW 3 4 1016.2 - 0.0 - - - - - - -
27/06:30am 20.2 WNW 3 4 1015.9 - 0.0 - - - - - - -
27/06:00am 20.2 NW 4 4 1015.9 - 0.0 - - - - - - -
27/05:30am 20.5 NNW 2 3 1015.7 - 0.0 - - - - - - -
27/05:00am 20.4 NW 3 4 1015.7 - 0.0 - - - - - - -
27/04:30am 20.9 NW 4 5 1015.6 - 0.0 - - - - - - -
27/04:00am 21.3 N 7 8 1015.7 - 0.0 - - - - - - -
27/03:30am 21.4 N 8 9 1016.1 - 0.0 - - - - - - -
27/03:00am 21.8 NNW 3 5 1016.4 - 0.0 - - - - - - -
27/02:30am 22.1 N 5 8 1016.7 - 0.0 - - - - - - -
27/02:00am 22.2 NNE 12 13 1016.7 - 0.0 - - - - - - -
27/01:30am 22.1 NNE 12 13 1016.9 - 0.0 - - - - - - -
27/01:00am 22.3 NNE 14 16 1017.0 - 0.0 - - - - - - -
27/12:30am 22.4 NNE 13 15 1017.2 - 0.0 - - - - - - -
27/12:00am 22.6 NNE 13 15 1017.4 - 0.0 - - - - - - -
 
Date/Time
EDT
Temp
°C
Wind Pressure Rain since
9am
mm
Weather Cloud Vis
km
Sea
Height
m
Swell
Dir  Spd
kts
Gust
kts
hPa Trend Height
m
Period
s
Dir
26/11:30pm 22.7 NNE 13 15 1017.6 - 0.0 - - - - - - -
26/11:00pm 22.7 NNE 13 16 1017.7 - 0.0 - - - - - - -
26/10:30pm 22.7 NNE 12 14 1017.8 - 0.0 - - - - - - -
26/10:00pm 22.7 NE 11 14 1017.6 - 0.0 - - - - - - -
26/09:30pm 22.3 NE 11 13 1017.3 - 0.0 - - - - - - -
26/09:00pm 22.2 NE 10 11 1016.9 - 0.0 - - - - - - -
26/08:30pm 22.2 NE 10 11 1016.7 - 0.0 - - - - - - -
26/08:00pm 22.2 NE 10 11 1016.4 - 0.0 - - - - - - -
26/07:30pm 22.5 ENE 10 12 1015.9 - 0.0 - - - - - - -
26/07:00pm 22.6 ENE 10 12 1015.5 - 0.0 - - - - - - -
26/06:30pm 23.2 ENE 10 12 1015.3 - 0.0 - - - - - - -
26/06:00pm 23.8 ENE 9 11 1015.2 - 0.0 - - - - - - -
26/05:30pm 24.6 ENE 9 11 1014.9 - 0.0 - - - - - - -
26/05:00pm 25.3 ENE 8 10 1014.7 - 0.0 - - - - - - -
26/04:30pm 25.2 ENE 9 11 1014.5 - 0.0 - - - - - - -
26/04:00pm 26.5 ENE 8 9 1014.5 - 0.0 - - - - - - -
26/03:30pm 27.1 ENE 6 7 1014.5 - 0.0 - - - - - - -
26/03:00pm 25.6 ESE 6 8 1014.6 - 0.0 - - - - - - -
26/02:30pm 26.3 SE 7 8 1014.8 - 0.0 - - - - - - -
26/02:00pm 26.6 SE 7 8 1014.9 - 0.0 - - - - - - -
26/01:30pm 26.6 SSE 6 7 1015.4 - 0.0 - - - - - - -
26/01:00pm 26.4 S 7 8 1015.7 - 0.0 - - - - - - -
26/12:30pm 26.5 S 6 7 1016.0 - 0.0 - - - - - - -
26/12:00pm 25.8 S 5 7 1016.2 - 0.0 - - - - - - -
26/11:30am 26.1 S 6 7 1016.3 - 0.0 - - - - - - -
26/11:00am 24.8 SSW 5 7 1016.2 - 0.0 - - - - - - -
26/10:30am 24.0 SSW 5 7 1016.1 - 0.0 - - - - - - -
26/10:00am 23.9 SSW 5 8 1015.9 - 0.0 - - - - - - -
26/09:30am 22.7 SW 5 7 1015.8 - 0.0 - - - - - - -
26/09:00am 22.4 SSW 4 6 1015.5 - 0.0 - - - - - - -
26/08:30am 21.8 SW 4 6 1015.2 - 0.0 - - - - - - -
26/08:00am 21.1 SW 3 5 1014.8 - 0.0 - - - - - - -
26/07:30am 20.4 WSW 5 7 1014.6 - 0.0 - - - - - - -
26/07:00am 20.2 WSW 6 8 1014.4 - 0.0 - - - - - - -
26/06:30am 20.2 WSW 6 7 1013.9 - 0.0 - - - - - - -
26/06:00am 20.4 W 5 6 1013.4 - 0.0 - - - - - - -
26/05:30am 20.8 WSW 4 5 1013.3 - 0.0 - - - - - - -
26/05:00am 21.4 SW 5 7 1013.2 - 0.0 - - - - - - -
26/04:30am 21.8 SSW 6 9 1013.3 - 0.0 - - - - - - -
26/04:00am 21.5 SSW 6 8 1013.2 - 0.0 - - - - - - -
26/03:30am 21.1 SW 4 6 1013.2 - 0.0 - - - - - - -
26/03:00am 21.0 SW 5 7 1013.3 - 0.0 - - - - - - -
26/02:30am 21.0 WSW 5 7 1013.4 - 0.0 - - - - - - -
26/02:00am 21.2 W 6 7 1013.7 - 0.0 - - - - - - -
26/01:30am 21.5 W 2 3 1013.7 - 0.0 - - - - - - -
26/01:00am 21.9 WNW 2 4 1014.1 - 0.0 - - - - - - -
26/12:30am 22.3 N 6 7 1014.4 - 0.0 - - - - - - -
26/12:00am 22.2 N 6 7 1014.8 - 0.0 - - - - - - -
 
Date/Time
EDT
Temp
°C
Wind Pressure Rain since
9am
mm
Weather Cloud Vis
km
Sea
Height
m
Swell
Dir  Spd
kts
Gust
kts
hPa Trend Height
m
Period
s
Dir
25/11:30pm 22.3 N 5 7 1014.6 - 0.0 - - - - - - -
25/11:00pm 22.6 NNE 11 13 1014.7 - 0.0 - - - - - - -
25/10:30pm 22.7 NNE 11 14 1014.6 - 0.0 - - - - - - -
25/10:00pm 22.6 NE 10 13 1014.7 - 0.0 - - - - - - -
25/09:30pm 22.6 NE 11 13 1014.7 - 0.0 - - - - - - -
25/09:00pm 22.5 NE 11 13 1014.4 - 0.0 - - - - - - -
25/08:30pm 22.2 NE 12 14 1014.0 - 0.0 - - - - - - -
25/08:00pm 22.2 NE 11 12 1014.1 - 0.0 - - - - - - -
25/07:30pm 22.2 ENE 11 13 1013.8 - 0.0 - - - - - - -
25/07:00pm 22.1 ENE 11 12 1013.6 - 0.0 - - - - - - -
25/06:30pm 22.6 ENE 9 11 1013.9 - 0.0 - - - - - - -
25/06:00pm 22.6 NE 8 9 1013.9 - 0.0 - - - - - - -
25/05:30pm 23.3 ENE 8 10 1013.7 - 0.0 - - - - - - -
25/05:00pm 23.4 NE 9 11 1013.5 - 0.0 - - - - - - -
25/04:30pm 23.4 NE 8 9 1013.5 - 0.0 - - - - - - -
25/04:00pm 23.4 NE 9 10 1013.8 - 0.0 - - - - - - -
25/03:30pm 23.4 NE 9 10 1013.9 - 0.0 - - - - - - -
25/03:00pm 23.3 NE 10 12 1014.2 - 0.0 - - - - - - -
25/02:30pm 22.5 NE 11 13 1014.3 - 0.0 - - - - - - -
25/02:00pm 23.4 NE 9 10 1015.2 - 0.0 - - - - - - -
25/01:30pm 23.3 NE 9 11 1015.5 - 0.0 - - - - - - -
25/01:00pm 23.4 NE 8 9 1016.4 - 0.0 - - - - - - -
25/12:30pm 24.1 NE 9 11 1016.6 - 0.0 - - - - - - -
25/12:00pm 24.0 NE 8 10 1017.0 - 0.0 - - - - - - -
25/11:30am 23.1 NE 8 9 1017.2 - 0.0 - - - - - - -
25/11:00am 22.3 NNE 8 9 1017.6 - 0.0 - - - - - - -
25/10:30am 22.8 NNE 3 4 1017.6 - 0.0 - - - - - - -
25/10:00am 23.4 ENE 1 2 1017.6 - 0.0 - - - - - - -
25/09:30am 22.8 SE 1 3 1017.4 - 0.0 - - - - - - -
25/09:00am 22.8 CALM 0 1 1017.1 - 0.0 - - - - - - -
25/08:30am 21.7 SSE 1 1 1017.0 - 0.0 - - - - - - -
25/08:00am 20.4 CALM 0 0 1017.0 - 0.0 - - - - - - -
25/07:30am 20.3 CALM 0 0 1016.9 - 0.0 - - - - - - -
25/07:00am 19.8 WSW 3 4 1017.0 - 0.0 - - - - - - -
25/06:30am 19.9 SW 2 3 1017.3 - 0.0 - - - - - - -
25/06:00am 20.6 SW 2 3 1017.2 - 0.0 - - - - - - -
25/05:30am 19.9 WSW 2 2 1016.9 - 0.0 - - - - - - -
25/05:00am 20.0 W 3 5 1017.2 - 0.0 - - - - - - -
25/04:30am 20.5 W 4 6 1017.1 - 0.0 - - - - - - -
25/04:00am 20.7 CALM 0 2 1017.0 - 0.0 - - - - - - -
25/03:30am 20.8 ESE 3 5 1017.2 - 0.0 - - - - - - -
25/03:00am 21.0 ESE 5 7 1017.3 - 0.0 - - - - - - -
25/02:30am 21.1 ESE 5 8 1017.7 - 0.0 - - - - - - -
25/02:00am 21.1 SE 6 8 1018.2 - 0.0 - - - - - - -
25/01:30am 21.1 SE 7 9 1018.5 - 0.0 - - - - - - -
25/01:00am 21.1 SE 8 11 1018.7 - 0.0 - - - - - - -
25/12:30am 21.1 SE 8 11 1018.8 - 0.0 - - - - - - -
25/12:00am 21.3 SE 7 11 1019.3 - 0.0 - - - - - - -
 
Date/Time
EDT
Temp
°C
Wind Pressure Rain since
9am
mm
Weather Cloud Vis
km
Sea
Height
m
Swell
Dir  Spd
kts
Gust
kts
hPa Trend Height
m
Period
s
Dir
24/11:30pm 21.2 SE 9 12 1019.6 - 0.0 - - - - - - -
24/11:00pm 21.1 SE 8 10 1019.7 - 0.0 - - - - - - -
24/10:30pm 21.3 SE 9 12 1019.5 - 0.0 - - - - - - -
24/10:00pm 21.2 SE 9 11 1019.9 - 0.0 - - - - - - -
24/09:30pm 21.3 SE 10 14 1019.7 - 0.0 - - - - - - -
24/09:00pm 21.4 SE 14 17 1019.1 - 0.0 - - - - - - -
24/08:30pm 21.5 SE 13 15 1019.1 - 0.0 - - - - - - -
24/08:00pm 21.5 SE 13 16 1019.0 - 0.0 - - - - - - -
24/07:30pm 21.6 SE 13 14 1018.9 - 0.0 - - - - - - -
24/07:00pm 21.5 SE 10 14 1018.6 - 0.0 - - - - - - -
24/06:30pm 21.8 SE 14 16 1018.5 - 0.0 - - - - - - -
24/06:00pm 22.1 SE 13 16 1018.4 - 0.0 - - - - - - -
24/05:30pm 22.0 SSE 14 16 1018.3 - 0.0 - - - - - - -
24/05:12pm 21.6 S 8 17 1018.1 - 0.0 - - - - - - -
24/05:00pm 22.1 S 3 4 1018.3 - 0.0 - - - - - - -
24/04:30pm 21.6 SSW 4 5 1018.4 - 0.0 - - - - - - -
24/04:00pm 21.6 ESE 2 4 1018.3 - 0.0 - - - - - - -
24/03:30pm 22.1 S 12 14 1018.5 - 0.0 - - - - - - -
24/03:00pm 22.0 SSW 7 12 1018.7 - 0.0 - - - - - - -
24/02:30pm 21.6 SSW 6 9 1018.9 - 0.0 - - - - - - -
24/02:00pm 22.5 S 14 19 1019.1 - 0.0 - - - - - - -
24/01:30pm 22.9 SSE 12 13 1019.3 - 0.0 - - - - - - -
24/01:00pm 24.5 SSE 13 15 1019.4 - 0.0 - - - - - - -
24/12:30pm 25.4 SSE 12 13 1019.7 - 0.0 - - - - - - -
24/12:00pm 25.0 SSE 13 16 1019.6 - 0.0 - - - - - - -
24/11:30am 24.7 SSE 11 13 1019.8 - 0.0 - - - - - - -
24/11:00am 24.2 SSE 14 16 1019.7 - 0.0 - - - - - - -
24/10:30am 23.1 SSE 15 18 1019.5 - 0.0 - - - - - - -
24/10:00am 21.8 SSW 5 9 1019.5 - 0.0 - - - - - - -
24/09:30am 21.4 SSW 6 8 1019.5 - 0.0 - - - - - - -
24/09:00am 21.3 SW 8 15 1019.5 - 3.6 Recent precip. - - - - - -
24/08:30am 20.9 S 12 18 1019.1 - 3.4 - - - - - - -
24/08:00am 20.0 SSW 7 14 1018.9 - 3.4 - - - - - - -

Other Formats:

Comma delimited format used in spreadsheet applications
http://www.bom.gov.au/fwo/IDN60701/IDN60701.95770.axf

JavaScript Object Notation format (JSON) in row-major order
http://www.bom.gov.au/fwo/IDN60701/IDN60701.95770.json